Bellwood, Nebraska
Current Conditions -  °F | °C
As of 6:35 AM on Thursday 18 Dec 2014 (Local Time) from KOLU Reporting Station
Overcast Overcast  
Wind Chill: 25°   Ceiling: 2500
Heat Index: 25°   Visibility: 4mi
Dew Point: 18°   Wind: 3mph
Humidity: 74%   Direction: 120°ESE
Pressure: 30.21"   Gusts: NA
Location:  41.34°N, 97.24°W
Report Text: KOLU 181235Z AUTO 12003KT 4SM FEW007 OVC025 M04/M08 A3021 RMK AO1
Loading
Personal Weather Stations






























Interactive Weather Map New forecast layout! Learn more

10-Day Weather Forecast

Advertisements
Track Severe Weather on mobile